sensor_id;sensor_type;location;lat;lon;timestamp;P1;durP1;ratioP1;P2;durP2;ratioP2
18689;SDS011;9782;52.930;15.562;2023-04-15T06:18:00;15.20;;;11.00;;
18689;SDS011;9782;52.930;15.562;2023-04-15T06:20:27;14.90;;;10.33;;
18689;SDS011;9782;52.930;15.562;2023-04-15T06:22:54;12.53;;;10.10;;
18689;SDS011;9782;52.930;15.562;2023-04-15T06:25:22;14.83;;;10.77;;
18689;SDS011;9782;52.930;15.562;2023-04-15T06:27:49;11.70;;;9.60;;
18689;SDS011;9782;52.930;15.562;2023-04-15T06:30:16;11.93;;;10.13;;
18689;SDS011;9782;52.930;15.562;2023-04-15T06:32:43;12.90;;;10.13;;
18689;SDS011;9782;52.930;15.562;2023-04-15T06:35:11;13.33;;;11.03;;
18689;SDS011;9782;52.930;15.562;2023-04-15T06:37:38;14.77;;;10.77;;
18689;SDS011;9782;52.930;15.562;2023-04-15T06:40:06;11.80;;;9.90;;
18689;SDS011;9782;52.930;15.562;2023-04-15T06:42:34;11.90;;;10.00;;
18689;SDS011;9782;52.930;15.562;2023-04-15T06:45:02;13.53;;;10.40;;
18689;SDS011;9782;52.930;15.562;2023-04-15T06:47:30;14.57;;;10.50;;
18689;SDS011;9782;52.930;15.562;2023-04-15T06:49:57;12.10;;;10.00;;
18689;SDS011;9782;52.930;15.562;2023-04-15T06:52:26;14.10;;;10.07;;
18689;SDS011;9782;52.930;15.562;2023-04-15T06:54:53;11.37;;;9.77;;
18689;SDS011;9782;52.930;15.562;2023-04-15T06:57:20;14.50;;;10.20;;
18689;SDS011;9782;52.930;15.562;2023-04-15T06:59:47;13.87;;;10.30;;
18689;SDS011;9782;52.930;15.562;2023-04-15T07:02:14;14.00;;;9.50;;
18689;SDS011;9782;52.930;15.562;2023-04-15T07:04:41;13.00;;;10.27;;
18689;SDS011;9782;52.930;15.562;2023-04-15T07:07:08;11.57;;;9.70;;
18689;SDS011;9782;52.930;15.562;2023-04-15T07:09:36;13.43;;;10.70;;
18689;SDS011;9782;52.930;15.562;2023-04-15T07:12:03;13.23;;;10.17;;
18689;SDS011;9782;52.930;15.562;2023-04-15T07:14:30;14.90;;;10.27;;
18689;SDS011;9782;52.930;15.562;2023-04-15T07:16:57;14.07;;;10.93;;
18689;SDS011;9782;52.930;15.562;2023-04-15T07:19:24;16.60;;;11.13;;
18689;SDS011;9782;52.930;15.562;2023-04-15T07:21:51;12.80;;;10.40;;
18689;SDS011;9782;52.930;15.562;2023-04-15T07:24:18;13.87;;;10.70;;
18689;SDS011;9782;52.930;15.562;2023-04-15T07:26:48;14.50;;;11.17;;
18689;SDS011;9782;52.930;15.562;2023-04-15T07:29:15;13.70;;;11.20;;
18689;SDS011;9782;52.930;15.562;2023-04-15T07:31:42;13.50;;;10.20;;
18689;SDS011;9782;52.930;15.562;2023-04-15T07:34:09;12.87;;;10.53;;
18689;SDS011;9782;52.930;15.562;2023-04-15T07:36:36;12.67;;;10.60;;
18689;SDS011;9782;52.930;15.562;2023-04-15T07:39:04;14.23;;;11.17;;
18689;SDS011;9782;52.930;15.562;2023-04-15T07:41:31;16.67;;;11.67;;
18689;SDS011;9782;52.930;15.562;2023-04-15T07:44:00;16.60;;;11.73;;
18689;SDS011;9782;52.930;15.562;2023-04-15T07:46:27;19.33;;;10.47;;
18689;SDS011;9782;52.930;15.562;2023-04-15T07:48:54;12.93;;;10.30;;
18689;SDS011;9782;52.930;15.562;2023-04-15T07:51:21;16.10;;;11.33;;
18689;SDS011;9782;52.930;15.562;2023-04-15T07:53:49;12.60;;;10.90;;
18689;SDS011;9782;52.930;15.562;2023-04-15T07:56:16;13.50;;;10.90;;
18689;SDS011;9782;52.930;15.562;2023-04-15T07:58:42;13.60;;;11.03;;
18689;SDS011;9782;52.930;15.562;2023-04-15T08:01:11;13.50;;;10.50;;
18689;SDS011;9782;52.930;15.562;2023-04-15T08:03:38;14.03;;;10.90;;
18689;SDS011;9782;52.930;15.562;2023-04-15T08:06:05;13.60;;;10.80;;
18689;SDS011;9782;52.930;15.562;2023-04-15T08:08:32;13.70;;;10.70;;
18689;SDS011;9782;52.930;15.562;2023-04-15T08:10:59;14.47;;;11.27;;
18689;SDS011;9782;52.930;15.562;2023-04-15T08:13:26;14.40;;;11.60;;
18689;SDS011;9782;52.930;15.562;2023-04-15T08:18:46;13.30;;;10.60;;
18689;SDS011;9782;52.930;15.562;2023-04-15T08:21:14;14.33;;;12.07;;
18689;SDS011;9782;52.930;15.562;2023-04-15T08:23:42;14.47;;;11.53;;
18689;SDS011;9782;52.930;15.562;2023-04-15T08:26:09;16.10;;;11.00;;
18689;SDS011;9782;52.930;15.562;2023-04-15T08:28:36;15.80;;;12.30;;
18689;SDS011;9782;52.930;15.562;2023-04-15T08:31:04;15.43;;;11.50;;
18689;SDS011;9782;52.930;15.562;2023-04-15T08:33:33;14.10;;;11.43;;
18689;SDS011;9782;52.930;15.562;2023-04-15T08:36:00;15.10;;;11.83;;
18689;SDS011;9782;52.930;15.562;2023-04-15T08:38:27;14.87;;;12.83;;
18689;SDS011;9782;52.930;15.562;2023-04-15T08:40:54;13.40;;;11.13;;
18689;SDS011;9782;52.930;15.562;2023-04-15T08:43:23;14.63;;;11.80;;
18689;SDS011;9782;52.930;15.562;2023-04-15T08:45:54;13.80;;;10.90;;
18689;SDS011;9782;52.930;15.562;2023-04-15T08:48:23;14.70;;;11.90;;
18689;SDS011;9782;52.930;15.562;2023-04-15T08:50:55;14.83;;;11.03;;
18689;SDS011;9782;52.930;15.562;2023-04-15T08:53:23;14.00;;;11.20;;
18689;SDS011;9782;52.930;15.562;2023-04-15T08:55:51;16.17;;;12.27;;
18689;SDS011;9782;52.930;15.562;2023-04-15T08:58:20;16.20;;;11.67;;
18689;SDS011;9782;52.930;15.562;2023-04-15T09:00:48;15.57;;;11.27;;
18689;SDS011;9782;52.930;15.562;2023-04-15T09:03:15;12.73;;;11.23;;
18689;SDS011;9782;52.930;15.562;2023-04-15T09:05:43;14.27;;;11.83;;
18689;SDS011;9782;52.930;15.562;2023-04-15T09:08:12;13.90;;;11.53;;
18689;SDS011;9782;52.930;15.562;2023-04-15T09:10:40;14.20;;;11.20;;
18689;SDS011;9782;52.930;15.562;2023-04-15T09:13:07;13.67;;;11.17;;
18689;SDS011;9782;52.930;15.562;2023-04-15T09:15:34;12.70;;;10.70;;
18689;SDS011;9782;52.930;15.562;2023-04-15T09:18:04;13.50;;;11.10;;
18689;SDS011;9782;52.930;15.562;2023-04-15T09:20:34;10.80;;;9.53;;
18689;SDS011;9782;52.930;15.562;2023-04-15T09:23:11;11.37;;;9.70;;
18689;SDS011;9782;52.930;15.562;2023-04-15T09:25:39;12.23;;;10.80;;
18689;SDS011;9782;52.930;15.562;2023-04-15T09:28:07;13.10;;;10.90;;
18689;SDS011;9782;52.930;15.562;2023-04-15T09:30:34;13.33;;;11.20;;
18689;SDS011;9782;52.930;15.562;2023-04-15T09:33:02;12.67;;;10.33;;
18689;SDS011;9782;52.930;15.562;2023-04-15T09:35:32;13.47;;;10.60;;
18689;SDS011;9782;52.930;15.562;2023-04-15T09:38:01;11.30;;;10.00;;
18689;SDS011;9782;52.930;15.562;2023-04-15T09:40:32;11.23;;;9.93;;
18689;SDS011;9782;52.930;15.562;2023-04-15T09:42:59;11.67;;;9.70;;
18689;SDS011;9782;52.930;15.562;2023-04-15T09:45:27;10.57;;;9.47;;
18689;SDS011;9782;52.930;15.562;2023-04-15T09:47:56;11.57;;;9.87;;
18689;SDS011;9782;52.930;15.562;2023-04-15T09:50:25;10.73;;;9.57;;
18689;SDS011;9782;52.930;15.562;2023-04-15T09:52:54;10.77;;;9.67;;
18689;SDS011;9782;52.930;15.562;2023-04-15T09:55:21;10.57;;;8.97;;
18689;SDS011;9782;52.930;15.562;2023-04-15T09:57:50;11.57;;;8.93;;
18689;SDS011;9782;52.930;15.562;2023-04-15T10:00:17;10.57;;;9.17;;
18689;SDS011;9782;52.930;15.562;2023-04-15T10:02:44;10.20;;;9.10;;
18689;SDS011;9782;52.930;15.562;2023-04-15T10:05:14;10.63;;;8.97;;
18689;SDS011;9782;52.930;15.562;2023-04-15T10:07:42;10.83;;;8.20;;
18689;SDS011;9782;52.930;15.562;2023-04-15T10:10:10;11.23;;;9.07;;
18689;SDS011;9782;52.930;15.562;2023-04-15T10:12:38;9.60;;;8.17;;
18689;SDS011;9782;52.930;15.562;2023-04-15T10:15:10;8.00;;;6.40;;
18689;SDS011;9782;52.930;15.562;2023-04-15T10:17:40;8.60;;;7.40;;
18689;SDS011;9782;52.930;15.562;2023-04-15T10:20:10;9.40;;;8.40;;
18689;SDS011;9782;52.930;15.562;2023-04-15T10:22:39;8.83;;;7.93;;
18689;SDS011;9782;52.930;15.562;2023-04-15T10:25:07;7.60;;;6.80;;
18689;SDS011;9782;52.930;15.562;2023-04-15T10:27:36;9.27;;;7.57;;
18689;SDS011;9782;52.930;15.562;2023-04-15T10:30:08;9.23;;;8.23;;
18689;SDS011;9782;52.930;15.562;2023-04-15T10:32:36;8.90;;;7.97;;
18689;SDS011;9782;52.930;15.562;2023-04-15T10:35:04;9.40;;;7.73;;
18689;SDS011;9782;52.930;15.562;2023-04-15T10:37:33;9.43;;;8.43;;
18689;SDS011;9782;52.930;15.562;2023-04-15T10:42:50;9.23;;;8.30;;
18689;SDS011;9782;52.930;15.562;2023-04-15T10:45:18;9.30;;;7.53;;
18689;SDS011;9782;52.930;15.562;2023-04-15T10:47:45;8.70;;;7.67;;
18689;SDS011;9782;52.930;15.562;2023-04-15T10:50:18;9.20;;;8.23;;
18689;SDS011;9782;52.930;15.562;2023-04-15T10:52:49;8.53;;;7.73;;
18689;SDS011;9782;52.930;15.562;2023-04-15T10:55:18;8.47;;;7.67;;
18689;SDS011;9782;52.930;15.562;2023-04-15T10:57:46;8.33;;;7.50;;
18689;SDS011;9782;52.930;15.562;2023-04-15T11:00:20;6.93;;;6.17;;
18689;SDS011;9782;52.930;15.562;2023-04-15T11:02:51;8.03;;;6.77;;
18689;SDS011;9782;52.930;15.562;2023-04-15T11:05:21;7.23;;;6.50;;
18689;SDS011;9782;52.930;15.562;2023-04-15T11:08:10;6.50;;;5.73;;
18689;SDS011;9782;52.930;15.562;2023-04-15T11:13:21;7.10;;;6.40;;
18689;SDS011;9782;52.930;15.562;2023-04-15T11:15:53;7.47;;;6.40;;
18689;SDS011;9782;52.930;15.562;2023-04-15T11:18:23;6.90;;;6.20;;
18689;SDS011;9782;52.930;15.562;2023-04-15T11:20:52;7.87;;;6.70;;
18689;SDS011;9782;52.930;15.562;2023-04-15T11:23:27;7.20;;;6.23;;
18689;SDS011;9782;52.930;15.562;2023-04-15T11:26:04;6.10;;;5.50;;
18689;SDS011;9782;52.930;15.562;2023-04-15T11:28:36;7.53;;;5.40;;
18689;SDS011;9782;52.930;15.562;2023-04-15T11:31:08;6.40;;;5.80;;
18689;SDS011;9782;52.930;15.562;2023-04-15T11:33:36;6.23;;;5.50;;
18689;SDS011;9782;52.930;15.562;2023-04-15T11:36:04;7.00;;;5.93;;
18689;SDS011;9782;52.930;15.562;2023-04-15T11:38:34;6.73;;;5.50;;
18689;SDS011;9782;52.930;15.562;2023-04-15T11:41:02;6.30;;;5.43;;
18689;SDS011;9782;52.930;15.562;2023-04-15T11:43:30;6.50;;;5.80;;
18689;SDS011;9782;52.930;15.562;2023-04-15T11:46:00;6.93;;;5.50;;
18689;SDS011;9782;52.930;15.562;2023-04-15T11:48:29;6.43;;;5.83;;
18689;SDS011;9782;52.930;15.562;2023-04-15T11:50:57;5.77;;;5.17;;
18689;SDS011;9782;52.930;15.562;2023-04-15T11:53:36;6.80;;;6.10;;
18689;SDS011;9782;52.930;15.562;2023-04-15T11:56:05;5.90;;;5.30;;
18689;SDS011;9782;52.930;15.562;2023-04-15T11:58:34;6.70;;;5.60;;
18689;SDS011;9782;52.930;15.562;2023-04-15T12:01:03;6.20;;;5.57;;
18689;SDS011;9782;52.930;15.562;2023-04-15T12:03:34;5.57;;;5.07;;
18689;SDS011;9782;52.930;15.562;2023-04-15T12:06:13;6.00;;;5.40;;
18689;SDS011;9782;52.930;15.562;2023-04-15T12:08:50;5.80;;;5.20;;
18689;SDS011;9782;52.930;15.562;2023-04-15T12:11:34;6.53;;;5.63;;
18689;SDS011;9782;52.930;15.562;2023-04-15T12:14:03;6.43;;;5.70;;
18689;SDS011;9782;52.930;15.562;2023-04-15T12:16:33;6.63;;;5.80;;
18689;SDS011;9782;52.930;15.562;2023-04-15T12:19:06;6.90;;;5.80;;
18689;SDS011;9782;52.930;15.562;2023-04-15T12:21:36;7.20;;;6.50;;
18689;SDS011;9782;52.930;15.562;2023-04-15T12:24:06;6.57;;;5.80;;
18689;SDS011;9782;52.930;15.562;2023-04-15T12:26:36;6.70;;;5.77;;
18689;SDS011;9782;52.930;15.562;2023-04-15T12:29:08;7.67;;;6.73;;
18689;SDS011;9782;52.930;15.562;2023-04-15T12:31:37;7.20;;;6.30;;
18689;SDS011;9782;52.930;15.562;2023-04-15T12:34:14;8.27;;;7.17;;
18689;SDS011;9782;52.930;15.562;2023-04-15T12:36:41;8.30;;;7.40;;
18689;SDS011;9782;52.930;15.562;2023-04-15T12:39:09;8.30;;;7.43;;
18689;SDS011;9782;52.930;15.562;2023-04-15T12:41:36;8.97;;;7.90;;
18689;SDS011;9782;52.930;15.562;2023-04-15T12:44:03;8.60;;;7.73;;
18689;SDS011;9782;52.930;15.562;2023-04-15T12:46:30;9.20;;;8.20;;
18689;SDS011;9782;52.930;15.562;2023-04-15T12:48:57;10.60;;;8.30;;
18689;SDS011;9782;52.930;15.562;2023-04-15T12:51:24;10.70;;;8.27;;
18689;SDS011;9782;52.930;15.562;2023-04-15T12:53:52;10.50;;;9.17;;
18689;SDS011;9782;52.930;15.562;2023-04-15T12:56:20;8.90;;;7.93;;
18689;SDS011;9782;52.930;15.562;2023-04-15T12:58:48;11.50;;;9.43;;
18689;SDS011;9782;52.930;15.562;2023-04-15T13:01:15;11.80;;;9.93;;
18689;SDS011;9782;52.930;15.562;2023-04-15T13:03:42;11.40;;;9.57;;
18689;SDS011;9782;52.930;15.562;2023-04-15T13:06:09;10.90;;;9.27;;
18689;SDS011;9782;52.930;15.562;2023-04-15T13:08:36;11.73;;;9.63;;
18689;SDS011;9782;52.930;15.562;2023-04-15T13:11:03;11.37;;;10.00;;
18689;SDS011;9782;52.930;15.562;2023-04-15T13:13:32;10.63;;;9.53;;
18689;SDS011;9782;52.930;15.562;2023-04-15T13:15:59;12.00;;;10.10;;
18689;SDS011;9782;52.930;15.562;2023-04-15T13:18:27;11.63;;;10.17;;
18689;SDS011;9782;52.930;15.562;2023-04-15T13:20:55;12.00;;;9.87;;
18689;SDS011;9782;52.930;15.562;2023-04-15T13:23:22;12.60;;;10.33;;
18689;SDS011;9782;52.930;15.562;2023-04-15T13:25:49;13.40;;;10.50;;
18689;SDS011;9782;52.930;15.562;2023-04-15T13:28:16;13.23;;;10.63;;
18689;SDS011;9782;52.930;15.562;2023-04-15T13:30:44;12.63;;;10.20;;
18689;SDS011;9782;52.930;15.562;2023-04-15T13:33:12;12.97;;;11.00;;
18689;SDS011;9782;52.930;15.562;2023-04-15T13:35:39;13.73;;;10.70;;
18689;SDS011;9782;52.930;15.562;2023-04-15T13:38:06;12.63;;;10.87;;
18689;SDS011;9782;52.930;15.562;2023-04-15T13:40:33;13.37;;;10.70;;
18689;SDS011;9782;52.930;15.562;2023-04-15T13:43:00;12.93;;;11.00;;
18689;SDS011;9782;52.930;15.562;2023-04-15T13:45:28;14.50;;;11.73;;
18689;SDS011;9782;52.930;15.562;2023-04-15T13:47:57;13.80;;;10.83;;
18689;SDS011;9782;52.930;15.562;2023-04-15T13:50:25;14.27;;;11.60;;
18689;SDS011;9782;52.930;15.562;2023-04-15T13:52:52;13.23;;;10.77;;
18689;SDS011;9782;52.930;15.562;2023-04-15T13:55:19;10.40;;;9.23;;
18689;SDS011;9782;52.930;15.562;2023-04-15T13:57:46;11.00;;;9.80;;
18689;SDS011;9782;52.930;15.562;2023-04-15T14:00:14;12.67;;;10.00;;
18689;SDS011;9782;52.930;15.562;2023-04-15T14:02:42;11.83;;;9.60;;
18689;SDS011;9782;52.930;15.562;2023-04-15T14:05:10;10.90;;;9.53;;
18689;SDS011;9782;52.930;15.562;2023-04-15T14:07:37;12.17;;;9.90;;
18689;SDS011;9782;52.930;15.562;2023-04-15T14:10:05;11.17;;;9.00;;
18689;SDS011;9782;52.930;15.562;2023-04-15T14:12:32;11.63;;;9.90;;
18689;SDS011;9782;52.930;15.562;2023-04-15T14:15:00;12.73;;;10.70;;
18689;SDS011;9782;52.930;15.562;2023-04-15T14:17:27;12.70;;;10.80;;
18689;SDS011;9782;52.930;15.562;2023-04-15T14:19:54;14.20;;;11.50;;
18689;SDS011;9782;52.930;15.562;2023-04-15T14:22:22;14.53;;;11.00;;
18689;SDS011;9782;52.930;15.562;2023-04-15T14:24:49;13.33;;;11.00;;
18689;SDS011;9782;52.930;15.562;2023-04-15T14:27:17;11.37;;;9.53;;
18689;SDS011;9782;52.930;15.562;2023-04-15T14:29:44;12.57;;;10.67;;
18689;SDS011;9782;52.930;15.562;2023-04-15T14:32:12;11.63;;;9.63;;
18689;SDS011;9782;52.930;15.562;2023-04-15T14:34:39;12.87;;;10.47;;
18689;SDS011;9782;52.930;15.562;2023-04-15T14:37:05;14.87;;;11.13;;
18689;SDS011;9782;52.930;15.562;2023-04-15T14:39:34;13.87;;;11.20;;
18689;SDS011;9782;52.930;15.562;2023-04-15T14:42:01;12.70;;;9.43;;
18689;SDS011;9782;52.930;15.562;2023-04-15T14:44:28;12.67;;;10.43;;
18689;SDS011;9782;52.930;15.562;2023-04-15T14:46:55;12.07;;;10.17;;
18689;SDS011;9782;52.930;15.562;2023-04-15T14:49:22;11.93;;;9.70;;
18689;SDS011;9782;52.930;15.562;2023-04-15T14:51:49;12.23;;;9.97;;
18689;SDS011;9782;52.930;15.562;2023-04-15T14:54:16;13.80;;;11.07;;
18689;SDS011;9782;52.930;15.562;2023-04-15T14:56:44;12.17;;;10.30;;
18689;SDS011;9782;52.930;15.562;2023-04-15T14:59:11;12.70;;;10.07;;
18689;SDS011;9782;52.930;15.562;2023-04-15T15:01:38;12.63;;;9.77;;
18689;SDS011;9782;52.930;15.562;2023-04-15T15:04:05;12.33;;;10.07;;
18689;SDS011;9782;52.930;15.562;2023-04-15T15:06:32;11.57;;;9.70;;
18689;SDS011;9782;52.930;15.562;2023-04-15T15:08:59;13.07;;;10.50;;
18689;SDS011;9782;52.930;15.562;2023-04-15T15:11:27;14.00;;;10.90;;
18689;SDS011;9782;52.930;15.562;2023-04-15T15:13:56;10.33;;;9.13;;
18689;SDS011;9782;52.930;15.562;2023-04-15T15:16:23;11.70;;;9.80;;
18689;SDS011;9782;52.930;15.562;2023-04-15T15:18:50;12.63;;;10.00;;
18689;SDS011;9782;52.930;15.562;2023-04-15T15:21:17;10.97;;;9.03;;
18689;SDS011;9782;52.930;15.562;2023-04-15T15:23:44;11.10;;;9.40;;
18689;SDS011;9782;52.930;15.562;2023-04-15T15:26:12;11.50;;;9.43;;
18689;SDS011;9782;52.930;15.562;2023-04-15T15:28:39;12.53;;;8.77;;
18689;SDS011;9782;52.930;15.562;2023-04-15T15:31:08;10.80;;;9.03;;
18689;SDS011;9782;52.930;15.562;2023-04-15T15:33:35;9.33;;;8.17;;
18689;SDS011;9782;52.930;15.562;2023-04-15T15:36:02;9.53;;;8.53;;
18689;SDS011;9782;52.930;15.562;2023-04-15T15:38:30;9.80;;;8.00;;
18689;SDS011;9782;52.930;15.562;2023-04-15T15:40:57;10.67;;;8.50;;
18689;SDS011;9782;52.930;15.562;2023-04-15T15:43:24;10.23;;;8.53;;
18689;SDS011;9782;52.930;15.562;2023-04-15T15:45:51;8.00;;;6.97;;
18689;SDS011;9782;52.930;15.562;2023-04-15T15:48:20;11.53;;;8.07;;
18689;SDS011;9782;52.930;15.562;2023-04-15T15:50:48;9.47;;;8.13;;
18689;SDS011;9782;52.930;15.562;2023-04-15T15:53:15;8.77;;;7.40;;
18689;SDS011;9782;52.930;15.562;2023-04-15T15:55:45;8.50;;;7.27;;
18689;SDS011;9782;52.930;15.562;2023-04-15T15:58:13;9.93;;;8.20;;
18689;SDS011;9782;52.930;15.562;2023-04-15T16:00:41;10.37;;;7.97;;
18689;SDS011;9782;52.930;15.562;2023-04-15T16:03:08;10.43;;;8.13;;
18689;SDS011;9782;52.930;15.562;2023-04-15T16:05:36;8.97;;;7.87;;
18689;SDS011;9782;52.930;15.562;2023-04-15T16:08:04;9.47;;;7.90;;
18689;SDS011;9782;52.930;15.562;2023-04-15T16:10:31;9.13;;;8.17;;
18689;SDS011;9782;52.930;15.562;2023-04-15T16:12:58;9.13;;;7.83;;
18689;SDS011;9782;52.930;15.562;2023-04-15T16:15:26;9.03;;;7.70;;
18689;SDS011;9782;52.930;15.562;2023-04-15T16:17:53;9.63;;;8.10;;
18689;SDS011;9782;52.930;15.562;2023-04-15T16:20:20;10.40;;;8.00;;
18689;SDS011;9782;52.930;15.562;2023-04-15T16:22:48;10.77;;;8.57;;
18689;SDS011;9782;52.930;15.562;2023-04-15T16:25:16;10.77;;;7.97;;
18689;SDS011;9782;52.930;15.562;2023-04-15T16:27:43;9.60;;;8.20;;
18689;SDS011;9782;52.930;15.562;2023-04-15T16:30:11;11.13;;;8.77;;
18689;SDS011;9782;52.930;15.562;2023-04-15T16:32:38;10.17;;;7.97;;
18689;SDS011;9782;52.930;15.562;2023-04-15T16:35:06;10.23;;;8.13;;
18689;SDS011;9782;52.930;15.562;2023-04-15T16:37:33;10.37;;;8.47;;
18689;SDS011;9782;52.930;15.562;2023-04-15T16:40:02;10.20;;;8.33;;
18689;SDS011;9782;52.930;15.562;2023-04-15T16:42:29;9.23;;;8.07;;
18689;SDS011;9782;52.930;15.562;2023-04-15T16:44:56;10.53;;;8.33;;
18689;SDS011;9782;52.930;15.562;2023-04-15T16:47:23;12.70;;;9.20;;
18689;SDS011;9782;52.930;15.562;2023-04-15T16:49:50;12.90;;;9.07;;
18689;SDS011;9782;52.930;15.562;2023-04-15T16:52:17;13.17;;;9.23;;
18689;SDS011;9782;52.930;15.562;2023-04-15T16:54:44;10.57;;;8.60;;
18689;SDS011;9782;52.930;15.562;2023-04-15T16:57:12;12.27;;;8.53;;
18689;SDS011;9782;52.930;15.562;2023-04-15T16:59:39;12.33;;;8.90;;
18689;SDS011;9782;52.930;15.562;2023-04-15T17:02:08;11.47;;;8.97;;
18689;SDS011;9782;52.930;15.562;2023-04-15T17:04:36;11.83;;;8.70;;
18689;SDS011;9782;52.930;15.562;2023-04-15T17:07:03;10.73;;;9.27;;
18689;SDS011;9782;52.930;15.562;2023-04-15T17:09:31;12.17;;;9.17;;
18689;SDS011;9782;52.930;15.562;2023-04-15T17:11:58;12.77;;;9.73;;
18689;SDS011;9782;52.930;15.562;2023-04-15T17:14:27;12.63;;;9.23;;
18689;SDS011;9782;52.930;15.562;2023-04-15T17:16:54;13.13;;;9.63;;
18689;SDS011;9782;52.930;15.562;2023-04-15T17:19:21;11.60;;;8.60;;
18689;SDS011;9782;52.930;15.562;2023-04-15T17:21:49;11.93;;;9.60;;
18689;SDS011;9782;52.930;15.562;2023-04-15T17:24:16;12.23;;;9.30;;
18689;SDS011;9782;52.930;15.562;2023-04-15T17:26:43;13.67;;;10.17;;
18689;SDS011;9782;52.930;15.562;2023-04-15T17:29:11;13.63;;;10.20;;
18689;SDS011;9782;52.930;15.562;2023-04-15T17:31:39;13.50;;;10.83;;
18689;SDS011;9782;52.930;15.562;2023-04-15T17:34:06;13.70;;;11.00;;
18689;SDS011;9782;52.930;15.562;2023-04-15T17:36:33;15.20;;;10.80;;
18689;SDS011;9782;52.930;15.562;2023-04-15T17:39:00;14.03;;;10.93;;
18689;SDS011;9782;52.930;15.562;2023-04-15T17:41:27;16.70;;;11.00;;
18689;SDS011;9782;52.930;15.562;2023-04-15T17:43:54;15.47;;;11.43;;
18689;SDS011;9782;52.930;15.562;2023-04-15T17:46:21;14.60;;;10.97;;
18689;SDS011;9782;52.930;15.562;2023-04-15T17:48:50;14.63;;;11.17;;
18689;SDS011;9782;52.930;15.562;2023-04-15T17:51:16;15.10;;;11.17;;
18689;SDS011;9782;52.930;15.562;2023-04-15T17:53:43;14.27;;;11.20;;
18689;SDS011;9782;52.930;15.562;2023-04-15T17:56:10;18.23;;;11.83;;
18689;SDS011;9782;52.930;15.562;2023-04-15T17:58:37;15.83;;;11.20;;
18689;SDS011;9782;52.930;15.562;2023-04-15T18:01:04;14.83;;;10.70;;
18689;SDS011;9782;52.930;15.562;2023-04-15T18:03:31;13.57;;;10.57;;
18689;SDS011;9782;52.930;15.562;2023-04-15T18:06:00;15.23;;;10.70;;
18689;SDS011;9782;52.930;15.562;2023-04-15T18:08:27;16.23;;;11.63;;
18689;SDS011;9782;52.930;15.562;2023-04-15T18:10:54;14.87;;;10.60;;
18689;SDS011;9782;52.930;15.562;2023-04-15T18:13:21;16.23;;;11.17;;
18689;SDS011;9782;52.930;15.562;2023-04-15T18:15:48;15.57;;;11.33;;
18689;SDS011;9782;52.930;15.562;2023-04-15T18:18:16;15.77;;;11.50;;
18689;SDS011;9782;52.930;15.562;2023-04-15T18:20:42;14.70;;;10.07;;
18689;SDS011;9782;52.930;15.562;2023-04-15T18:23:11;15.80;;;11.00;;
18689;SDS011;9782;52.930;15.562;2023-04-15T18:25:38;16.70;;;11.83;;
18689;SDS011;9782;52.930;15.562;2023-04-15T18:28:07;14.80;;;10.77;;
18689;SDS011;9782;52.930;15.562;2023-04-15T18:30:34;14.77;;;11.37;;
18689;SDS011;9782;52.930;15.562;2023-04-15T18:33:01;13.73;;;11.07;;
18689;SDS011;9782;52.930;15.562;2023-04-15T18:35:28;15.13;;;10.93;;
18689;SDS011;9782;52.930;15.562;2023-04-15T18:37:55;16.87;;;11.60;;
18689;SDS011;9782;52.930;15.562;2023-04-15T18:40:24;16.53;;;11.53;;
18689;SDS011;9782;52.930;15.562;2023-04-15T18:42:51;15.60;;;11.80;;
18689;SDS011;9782;52.930;15.562;2023-04-15T18:45:19;14.97;;;11.10;;
18689;SDS011;9782;52.930;15.562;2023-04-15T18:47:46;15.23;;;10.17;;
18689;SDS011;9782;52.930;15.562;2023-04-15T18:50:14;15.73;;;11.27;;
18689;SDS011;9782;52.930;15.562;2023-04-15T18:52:41;14.97;;;10.90;;
18689;SDS011;9782;52.930;15.562;2023-04-15T18:55:08;15.40;;;11.80;;
18689;SDS011;9782;52.930;15.562;2023-04-15T18:57:36;14.80;;;11.30;;
18689;SDS011;9782;52.930;15.562;2023-04-15T19:00:07;17.37;;;11.83;;
18689;SDS011;9782;52.930;15.562;2023-04-15T19:02:35;16.93;;;11.67;;
18689;SDS011;9782;52.930;15.562;2023-04-15T19:05:02;13.80;;;10.53;;
18689;SDS011;9782;52.930;15.562;2023-04-15T19:07:30;16.90;;;11.77;;
18689;SDS011;9782;52.930;15.562;2023-04-15T19:09:57;17.33;;;12.87;;
18689;SDS011;9782;52.930;15.562;2023-04-15T19:12:24;16.50;;;12.30;;
18689;SDS011;9782;52.930;15.562;2023-04-15T19:14:52;18.57;;;12.23;;
18689;SDS011;9782;52.930;15.562;2023-04-15T19:17:20;18.13;;;12.90;;
18689;SDS011;9782;52.930;15.562;2023-04-15T19:19:47;18.23;;;12.53;;
18689;SDS011;9782;52.930;15.562;2023-04-15T19:22:14;16.77;;;12.50;;
18689;SDS011;9782;52.930;15.562;2023-04-15T19:24:41;16.77;;;12.77;;
18689;SDS011;9782;52.930;15.562;2023-04-15T19:27:08;17.57;;;12.13;;
18689;SDS011;9782;52.930;15.562;2023-04-15T19:29:35;15.83;;;12.30;;
18689;SDS011;9782;52.930;15.562;2023-04-15T19:32:04;18.63;;;12.87;;
18689;SDS011;9782;52.930;15.562;2023-04-15T19:34:31;20.17;;;12.83;;
18689;SDS011;9782;52.930;15.562;2023-04-15T19:36:58;17.07;;;12.60;;
18689;SDS011;9782;52.930;15.562;2023-04-15T19:39:25;16.57;;;11.80;;
18689;SDS011;9782;52.930;15.562;2023-04-15T19:41:52;16.50;;;12.70;;
18689;SDS011;9782;52.930;15.562;2023-04-15T19:44:19;17.67;;;11.40;;
18689;SDS011;9782;52.930;15.562;2023-04-15T19:46:46;18.53;;;12.77;;
18689;SDS011;9782;52.930;15.562;2023-04-15T19:49:16;14.47;;;11.73;;
18689;SDS011;9782;52.930;15.562;2023-04-15T19:51:44;16.13;;;12.43;;
18689;SDS011;9782;52.930;15.562;2023-04-15T19:54:12;17.07;;;12.23;;
18689;SDS011;9782;52.930;15.562;2023-04-15T19:56:39;17.07;;;12.47;;
18689;SDS011;9782;52.930;15.562;2023-04-15T19:59:06;16.57;;;11.90;;
18689;SDS011;9782;52.930;15.562;2023-04-15T20:01:33;17.27;;;12.50;;
18689;SDS011;9782;52.930;15.562;2023-04-15T20:04:00;17.37;;;12.67;;
18689;SDS011;9782;52.930;15.562;2023-04-15T20:06:29;16.50;;;12.13;;
18689;SDS011;9782;52.930;15.562;2023-04-15T20:08:56;17.97;;;12.67;;
18689;SDS011;9782;52.930;15.562;2023-04-15T20:11:23;16.03;;;12.00;;
18689;SDS011;9782;52.930;15.562;2023-04-15T20:13:53;17.70;;;13.37;;
18689;SDS011;9782;52.930;15.562;2023-04-15T20:16:20;17.67;;;12.37;;
18689;SDS011;9782;52.930;15.562;2023-04-15T20:18:47;16.60;;;12.47;;
18689;SDS011;9782;52.930;15.562;2023-04-15T20:21:14;16.53;;;11.97;;
18689;SDS011;9782;52.930;15.562;2023-04-15T20:23:42;20.13;;;13.00;;
18689;SDS011;9782;52.930;15.562;2023-04-15T20:26:09;15.43;;;11.47;;
18689;SDS011;9782;52.930;15.562;2023-04-15T20:28:36;16.57;;;11.13;;
18689;SDS011;9782;52.930;15.562;2023-04-15T20:31:03;18.30;;;11.60;;
18689;SDS011;9782;52.930;15.562;2023-04-15T20:33:30;16.17;;;11.83;;
18689;SDS011;9782;52.930;15.562;2023-04-15T20:35:57;18.23;;;11.93;;
18689;SDS011;9782;52.930;15.562;2023-04-15T20:38:24;17.90;;;11.50;;
18689;SDS011;9782;52.930;15.562;2023-04-15T20:40:52;16.67;;;12.30;;
18689;SDS011;9782;52.930;15.562;2023-04-15T20:43:19;16.27;;;12.10;;
18689;SDS011;9782;52.930;15.562;2023-04-15T20:45:46;16.63;;;11.93;;
18689;SDS011;9782;52.930;15.562;2023-04-15T20:48:16;16.10;;;11.97;;
18689;SDS011;9782;52.930;15.562;2023-04-15T20:50:44;17.50;;;11.87;;
18689;SDS011;9782;52.930;15.562;2023-04-15T20:53:11;17.47;;;12.10;;
18689;SDS011;9782;52.930;15.562;2023-04-15T20:55:38;17.70;;;12.27;;
18689;SDS011;9782;52.930;15.562;2023-04-15T20:58:06;19.63;;;12.43;;
18689;SDS011;9782;52.930;15.562;2023-04-15T21:00:33;19.87;;;12.77;;